Time;durP1;ratioP1;P1;durP2;ratioP2;P2;SDS_P1;SDS_P2;PMS_P1;PMS_P2;Temp;Humidity;BMP_temperature;BMP_pressure;BME280_temperature;BME280_humidity;BME280_pressure;Samples;Min_cycle;Max_cycle;Signal;HPM_P1;HPM_P2
2023/10/12 00:03:48;;;;;;;;;;;18.50;99.90;;;;;;12499339;28;19929;-82
2023/10/12 00:10:00;;;;;;;;;;;18.50;99.90;;;;;;12486184;28;20015;-83
2023/10/12 00:16:02;;;;;;;;;;;18.50;99.90;;;;;;12471330;28;20453;-83
2023/10/12 00:22:11;;;;;;;;;;;18.50;99.90;;;;;;12444174;28;19929;-83
2023/10/12 00:28:15;;;;;;;;;;;18.50;99.90;;;;;;12455788;28;20024;-83
2023/10/12 00:34:23;;;;;;;;;;;18.30;99.90;;;;;;12460279;28;19972;-82
2023/10/12 00:40:30;;;;;;;;;;;18.20;99.90;;;;;;12441418;28;19934;-83
2023/10/12 00:52:46;;;;;;;;;;;18.10;99.90;;;;;;12453125;28;19929;-82
2023/10/12 00:58:48;;;;;;;;;;;18.10;99.90;;;;;;12444247;28;19933;-83
2023/10/12 01:04:53;;;;;;;;;;;18.00;99.90;;;;;;12459826;28;19983;-84
2023/10/12 01:10:57;;;;;;;;;;;17.80;99.90;;;;;;12456108;28;19930;-83
2023/10/12 01:17:03;;;;;;;;;;;17.60;99.90;;;;;;12464193;28;19929;-84
2023/10/12 01:23:05;;;;;;;;;;;17.50;99.90;;;;;;12459997;28;20389;-84
2023/10/12 01:29:16;;;;;;;;;;;17.30;99.90;;;;;;12458994;28;19933;-84
2023/10/12 01:35:19;;;;;;;;;;;17.30;99.90;;;;;;12445691;28;20055;-84
2023/10/12 01:41:27;;;;;;;;;;;17.30;99.90;;;;;;12460676;28;19941;-83
2023/10/12 01:47:29;;;;;;;;;;;16.90;99.90;;;;;;12463198;28;19978;-83
2023/10/12 01:53:32;;;;;;;;;;;16.80;99.90;;;;;;12470326;28;19933;-84
2023/10/12 01:59:34;;;;;;;;;;;16.80;99.90;;;;;;12448707;28;19979;-83
2023/10/12 02:05:37;;;;;;;;;;;16.80;99.90;;;;;;12462504;28;19972;-82
2023/10/12 02:11:46;;;;;;;;;;;16.60;99.90;;;;;;12454646;28;19957;-82
2023/10/12 02:17:50;;;;;;;;;;;16.60;99.90;;;;;;12435450;28;19929;-84
2023/10/12 02:29:56;;;;;;;;;;;16.70;99.90;;;;;;12451844;28;19929;-84
2023/10/12 02:35:58;;;;;;;;;;;16.60;99.90;;;;;;12441055;28;20389;-83
2023/10/12 02:42:18;;;;;;;;;;;16.60;99.90;;;;;;12435149;28;20016;-83
2023/10/12 02:48:23;;;;;;;;;;;16.50;99.90;;;;;;12443195;28;20424;-83
2023/10/12 02:54:27;;;;;;;;;;;16.40;99.90;;;;;;12461518;28;19968;-84
2023/10/12 03:00:36;;;;;;;;;;;16.10;99.90;;;;;;12454870;28;19929;-84
2023/10/12 03:06:52;;;;;;;;;;;16.30;99.90;;;;;;12455721;28;19964;-83
2023/10/12 03:13:04;;;;;;;;;;;16.30;99.90;;;;;;12448648;28;20044;-84
2023/10/12 03:25:42;;;;;;;;;;;15.80;99.90;;;;;;12499301;28;19928;-84
2023/10/12 03:37:50;;;;;;;;;;;15.70;99.90;;;;;;12486318;28;19929;-86
2023/10/12 03:44:04;;;;;;;;;;;15.80;99.90;;;;;;12498713;28;20515;-83
2023/10/12 03:50:14;;;;;;;;;;;15.70;99.90;;;;;;12502471;28;20379;-83
2023/10/12 03:56:16;;;;;;;;;;;15.50;99.90;;;;;;12489003;28;20015;-83
2023/10/12 04:02:18;;;;;;;;;;;15.50;99.90;;;;;;12501027;28;20378;-83
2023/10/12 04:20:40;;;;;;;;;;;15.00;99.90;;;;;;12499361;28;19933;-82
2023/10/12 04:27:38;;;;;;;;;;;15.00;99.90;;;;;;12494389;28;20064;-82
2023/10/12 04:33:15;;;;;;;;;;;14.90;99.90;;;;;;12484819;28;19979;-83
2023/10/12 04:39:25;;;;;;;;;;;14.90;99.90;;;;;;12507894;28;19979;-83
2023/10/12 04:45:30;;;;;;;;;;;14.80;99.90;;;;;;12493161;28;20416;-83
2023/10/12 04:51:39;;;;;;;;;;;14.90;99.90;;;;;;12489007;28;19975;-85
2023/10/12 04:57:43;;;;;;;;;;;14.80;99.90;;;;;;12489794;28;19928;-84
2023/10/12 05:04:08;;;;;;;;;;;15.00;99.90;;;;;;12490474;28;21316;-84
2023/10/12 05:10:15;;;;;;;;;;;15.20;99.90;;;;;;12492783;28;19959;-84
2023/10/12 05:16:17;;;;;;;;;;;15.20;99.90;;;;;;12477860;28;19928;-84
2023/10/12 05:22:23;;;;;;;;;;;15.20;99.90;;;;;;12497522;28;20012;-84
2023/10/12 05:28:30;;;;;;;;;;;15.30;99.90;;;;;;12476496;28;19933;-84
2023/10/12 05:40:43;;;;;;;;;;;15.20;99.90;;;;;;12493559;28;20388;-84
2023/10/12 05:46:50;;;;;;;;;;;15.30;99.90;;;;;;12489963;28;20011;-84
2023/10/12 05:52:53;;;;;;;;;;;15.30;99.90;;;;;;12492547;28;20282;-83
2023/10/12 05:58:55;;;;;;;;;;;15.40;99.90;;;;;;12495503;28;19991;-84
2023/10/12 06:04:57;;;;;;;;;;;15.40;99.90;;;;;;12491043;28;20615;-84
2023/10/12 06:10:59;;;;;;;;;;;15.40;99.90;;;;;;12487803;28;20055;-84
2023/10/12 06:17:27;;;;;;;;;;;15.20;99.90;;;;;;12485953;28;20281;-84
2023/10/12 06:23:24;;;;;;;;;;;15.20;99.90;;;;;;12499507;28;19928;-84
2023/10/12 06:29:26;;;;;;;;;;;15.20;99.90;;;;;;12509272;28;19929;-83
2023/10/12 06:35:33;;;;;;;;;;;15.40;99.90;;;;;;12504132;28;20515;-84
2023/10/12 06:47:44;;;;;;;;;;;15.50;99.90;;;;;;12503824;28;19952;-84
2023/10/12 06:53:52;;;;;;;;;;;15.30;99.90;;;;;;12498629;28;19937;-82
2023/10/12 07:06:05;;;;;;;;;;;15.30;99.90;;;;;;12505384;28;19979;-82
2023/10/12 07:12:11;;;;;;;;;;;14.90;99.90;;;;;;12494783;28;19966;-83
2023/10/12 07:18:16;;;;;;;;;;;14.80;99.90;;;;;;12501518;28;19975;-83
2023/10/12 07:24:19;;;;;;;;;;;14.40;99.90;;;;;;12500326;28;20002;-82
2023/10/12 07:30:30;;;;;;;;;;;14.30;99.90;;;;;;12511219;28;19929;-83
2023/10/12 07:36:44;;;;;;;;;;;14.40;99.90;;;;;;12498131;28;20019;-83
2023/10/12 07:42:46;;;;;;;;;;;14.30;99.90;;;;;;12492156;28;20024;-83
2023/10/12 07:48:48;;;;;;;;;;;14.40;99.90;;;;;;12503989;28;19929;-83
2023/10/12 08:01:19;;;;;;;;;;;14.40;99.90;;;;;;12505246;28;20473;-83
2023/10/12 08:07:26;;;;;;;;;;;14.20;99.90;;;;;;12493630;28;19999;-82
2023/10/12 08:13:32;;;;;;;;;;;14.20;99.90;;;;;;12498299;28;19929;-83
2023/10/12 08:19:42;;;;;;;;;;;14.20;99.90;;;;;;12497330;28;19936;-83
2023/10/12 08:25:49;;;;;;;;;;;14.00;99.90;;;;;;12498422;28;19925;-84
2023/10/12 08:32:03;;;;;;;;;;;14.00;99.90;;;;;;12500038;28;20343;-83
2023/10/12 08:38:11;;;;;;;;;;;14.10;99.90;;;;;;12492868;28;20050;-84
2023/10/12 08:44:19;;;;;;;;;;;14.20;99.90;;;;;;12471634;28;20627;-83
2023/10/12 08:56:45;;;;;;;;;;;14.30;99.90;;;;;;12496400;28;19957;-83
2023/10/12 09:02:53;;;;;;;;;;;14.20;99.90;;;;;;12492896;28;20563;-83
2023/10/12 09:08:56;;;;;;;;;;;14.30;99.90;;;;;;12505813;28;20289;-84
2023/10/12 09:14:59;;;;;;;;;;;14.40;99.90;;;;;;12488027;28;19929;-83
2023/10/12 09:27:13;;;;;;;;;;;14.30;99.90;;;;;;12494724;28;19929;-83
2023/10/12 09:39:53;;;;;;;;;;;14.40;99.90;;;;;;12432328;28;19933;-83
2023/10/12 09:45:58;;;;;;;;;;;14.40;99.90;;;;;;12487613;28;19963;-83
2023/10/12 09:52:07;;;;;;;;;;;14.40;99.90;;;;;;12480273;28;19940;-83
2023/10/12 09:58:22;;;;;;;;;;;14.50;99.90;;;;;;12506741;28;20452;-83
2023/10/12 10:10:34;;;;;;;;;;;13.70;99.90;;;;;;12514116;28;20067;-83
2023/10/12 10:16:48;;;;;;;;;;;13.50;99.90;;;;;;12510509;28;19929;-83
2023/10/12 10:22:56;;;;;;;;;;;13.40;99.90;;;;;;12504457;28;19936;-84
2023/10/12 10:29:04;;;;;;;;;;;13.50;99.90;;;;;;12492369;28;19928;-83
2023/10/12 10:35:18;;;;;;;;;;;13.40;99.90;;;;;;12514920;28;19933;-83
2023/10/12 10:41:38;;;;;;;;;;;13.50;99.90;;;;;;12515139;28;20002;-84
2023/10/12 10:47:49;;;;;;;;;;;13.60;99.90;;;;;;12508097;28;19987;-83
2023/10/12 10:54:18;;;;;;;;;;;13.30;99.90;;;;;;12503544;28;19936;-83
2023/10/12 11:00:33;;;;;;;;;;;13.30;99.90;;;;;;12491512;28;20391;-84
2023/10/12 11:06:36;;;;;;;;;;;13.70;99.90;;;;;;12503943;28;19929;-83
2023/10/12 11:12:39;;;;;;;;;;;13.80;99.90;;;;;;12499898;28;19936;-84
2023/10/12 11:18:42;;;;;;;;;;;13.80;99.90;;;;;;12477658;28;19974;-83
2023/10/12 11:24:45;;;;;;;;;;;13.80;99.90;;;;;;12504052;28;19970;-83
2023/10/12 11:30:49;;;;;;;;;;;14.10;99.90;;;;;;12503644;28;20143;-84
2023/10/12 11:37:01;;;;;;;;;;;14.20;99.90;;;;;;12505582;28;19955;-83
2023/10/12 11:43:03;;;;;;;;;;;14.30;99.90;;;;;;12495485;28;19975;-83
2023/10/12 11:49:07;;;;;;;;;;;13.80;99.90;;;;;;12501026;28;19929;-83
2023/10/12 11:55:19;;;;;;;;;;;14.00;99.90;;;;;;12502428;28;20539;-84
2023/10/12 12:01:23;;;;;;;;;;;14.10;99.90;;;;;;12501295;28;20514;-84
2023/10/12 12:07:25;;;;;;;;;;;14.00;99.90;;;;;;12486479;28;20609;-84
2023/10/12 12:13:26;;;;;;;;;;;13.80;99.90;;;;;;12485726;28;19929;-84
2023/10/12 12:19:33;;;;;;;;;;;14.10;99.90;;;;;;12496162;28;19952;-84
2023/10/12 12:25:38;;;;;;;;;;;14.00;99.90;;;;;;12482141;28;19960;-84
2023/10/12 12:31:40;;;;;;;;;;;13.60;99.90;;;;;;12494195;28;20555;-84
2023/10/12 12:37:42;;;;;;;;;;;13.40;99.90;;;;;;12497673;28;20420;-84
2023/10/12 12:43:45;;;;;;;;;;;13.00;99.90;;;;;;12495981;28;20023;-83
2023/10/12 12:49:47;;;;;;;;;;;12.90;99.90;;;;;;12474685;28;21112;-83
2023/10/12 12:55:49;;;;;;;;;;;12.70;99.90;;;;;;12498497;28;20367;-84
2023/10/12 13:01:50;;;;;;;;;;;12.70;99.90;;;;;;12493407;28;20454;-84
2023/10/12 13:07:52;;;;;;;;;;;12.80;99.90;;;;;;12499290;28;20431;-84
2023/10/12 13:13:54;;;;;;;;;;;12.80;99.90;;;;;;12501524;28;20099;-84
2023/10/12 13:19:59;;;;;;;;;;;12.60;99.90;;;;;;12483795;28;20392;-83
2023/10/12 13:26:06;;;;;;;;;;;12.80;99.90;;;;;;12495680;28;19940;-83
2023/10/12 13:32:09;;;;;;;;;;;12.90;99.90;;;;;;12487782;28;19976;-83
2023/10/12 13:38:12;;;;;;;;;;;13.00;99.90;;;;;;12491575;28;19978;-83
2023/10/12 13:44:19;;;;;;;;;;;13.00;99.90;;;;;;12475950;28;20863;-83
2023/10/12 13:50:21;;;;;;;;;;;13.10;99.90;;;;;;12486420;28;20024;-83
2023/10/12 13:56:26;;;;;;;;;;;13.10;99.90;;;;;;12493421;28;20144;-83
2023/10/12 14:02:27;;;;;;;;;;;13.00;99.90;;;;;;12488803;28;20332;-83
2023/10/12 14:08:32;;;;;;;;;;;12.80;99.90;;;;;;12498972;28;19978;-84
2023/10/12 14:14:34;;;;;;;;;;;12.80;99.90;;;;;;12483502;28;19951;-83
2023/10/12 14:20:37;;;;;;;;;;;12.80;99.90;;;;;;12482699;28;19964;-83
2023/10/12 14:26:38;;;;;;;;;;;12.90;99.90;;;;;;12489767;28;19928;-83
2023/10/12 14:32:41;;;;;;;;;;;12.80;99.90;;;;;;12479816;28;19929;-83
2023/10/12 14:38:44;;;;;;;;;;;12.90;99.90;;;;;;12495734;28;19935;-83
2023/10/12 14:44:51;;;;;;;;;;;13.00;99.90;;;;;;12504793;28;19929;-83
2023/10/12 14:51:09;;;;;;;;;;;13.20;99.90;;;;;;12502166;28;19929;-83
2023/10/12 14:57:12;;;;;;;;;;;13.30;99.90;;;;;;12487213;28;20433;-83
2023/10/12 15:03:21;;;;;;;;;;;13.20;99.90;;;;;;12493371;28;20927;-83
2023/10/12 15:09:27;;;;;;;;;;;13.20;99.90;;;;;;12501048;28;20426;-83
2023/10/12 15:15:29;;;;;;;;;;;13.40;99.90;;;;;;12508531;28;19933;-83
2023/10/12 15:21:33;;;;;;;;;;;13.30;99.90;;;;;;12494653;28;19929;-84
2023/10/12 15:27:38;;;;;;;;;;;13.50;99.90;;;;;;12570367;28;19921;-84
2023/10/12 15:33:40;;;;;;;;;;;13.50;99.90;;;;;;12557679;28;19913;-84
2023/10/12 15:39:42;;;;;;;;;;;13.50;99.90;;;;;;12564809;28;19933;-84
2023/10/12 15:45:45;;;;;;;;;;;13.50;99.90;;;;;;12560762;28;19937;-84
2023/10/12 15:51:47;;;;;;;;;;;13.50;99.90;;;;;;12551831;28;19933;-84
2023/10/12 15:57:50;;;;;;;;;;;13.60;99.90;;;;;;12542184;28;19920;-83
2023/10/12 16:03:51;;;;;;;;;;;13.70;99.90;;;;;;12543191;28;19960;-83
2023/10/12 16:09:53;;;;;;;;;;;13.60;99.90;;;;;;12567644;28;20029;-83
2023/10/12 16:15:55;;;;;;;;;;;13.70;99.90;;;;;;12564868;28;19952;-84
2023/10/12 16:21:57;;;;;;;;;;;13.70;99.90;;;;;;12550955;28;19921;-84
2023/10/12 16:27:59;;;;;;;;;;;13.70;99.90;;;;;;12567561;28;19916;-83
2023/10/12 16:34:03;;;;;;;;;;;13.80;99.90;;;;;;12517925;28;19936;-84
2023/10/12 16:40:05;;;;;;;;;;;13.80;99.90;;;;;;12512509;28;19974;-84
2023/10/12 16:46:15;;;;;;;;;;;13.90;99.90;;;;;;12501363;28;19932;-83
2023/10/12 16:52:17;;;;;;;;;;;13.90;99.90;;;;;;12496575;28;19928;-83
2023/10/12 16:58:20;;;;;;;;;;;14.00;99.90;;;;;;12488414;28;19928;-83
2023/10/12 17:04:29;;;;;;;;;;;14.10;99.90;;;;;;12490635;28;19971;-83
2023/10/12 17:10:33;;;;;;;;;;;14.00;99.90;;;;;;12487792;28;19967;-83
2023/10/12 17:16:35;;;;;;;;;;;14.10;99.90;;;;;;12472845;28;19933;-84
2023/10/12 17:22:37;;;;;;;;;;;14.20;99.90;;;;;;12492234;28;20019;-84
2023/10/12 17:28:39;;;;;;;;;;;14.30;99.90;;;;;;12501711;28;20007;-84
2023/10/12 17:34:41;;;;;;;;;;;14.20;99.90;;;;;;12490166;28;20425;-84
2023/10/12 17:40:43;;;;;;;;;;;14.30;99.90;;;;;;12491769;28;19935;-84
2023/10/12 17:46:45;;;;;;;;;;;14.30;99.90;;;;;;12491931;28;19929;-85
2023/10/12 17:52:47;;;;;;;;;;;14.30;99.90;;;;;;12494457;28;20578;-85
2023/10/12 17:58:49;;;;;;;;;;;14.40;99.90;;;;;;12500070;28;20023;-86
2023/10/12 18:04:50;;;;;;;;;;;14.10;99.90;;;;;;12484840;28;19939;-84
2023/10/12 18:11:00;;;;;;;;;;;14.10;99.90;;;;;;12483187;28;20637;-84
2023/10/12 18:17:02;;;;;;;;;;;14.20;99.90;;;;;;12500379;28;20023;-85
2023/10/12 18:23:05;;;;;;;;;;;14.50;99.90;;;;;;12494229;28;19936;-84
2023/10/12 18:29:08;;;;;;;;;;;14.60;99.90;;;;;;12493076;28;19929;-85
2023/10/12 18:35:11;;;;;;;;;;;14.70;99.90;;;;;;12492932;28;19925;-85
2023/10/12 18:41:15;;;;;;;;;;;14.80;99.90;;;;;;12486540;28;19974;-84
2023/10/12 18:47:17;;;;;;;;;;;14.80;99.90;;;;;;12495672;28;19929;-85
2023/10/12 18:53:19;;;;;;;;;;;14.70;99.90;;;;;;12497478;28;20312;-85
2023/10/12 18:59:21;;;;;;;;;;;14.70;99.90;;;;;;12504715;28;19929;-85
2023/10/12 19:05:23;;;;;;;;;;;14.80;99.90;;;;;;12500040;28;19936;-85
2023/10/12 19:11:26;;;;;;;;;;;14.70;99.90;;;;;;12496118;28;20475;-85
2023/10/12 19:17:27;;;;;;;;;;;14.80;99.90;;;;;;12500781;28;19929;-84
2023/10/12 19:23:29;;;;;;;;;;;14.80;99.90;;;;;;12484678;28;19944;-84
2023/10/12 19:29:33;;;;;;;;;;;14.80;99.90;;;;;;12485923;28;19928;-86
2023/10/12 19:35:38;;;;;;;;;;;14.90;99.90;;;;;;12500518;28;19968;-85
2023/10/12 19:41:40;;;;;;;;;;;14.90;99.90;;;;;;12482669;28;19936;-85
2023/10/12 19:47:42;;;;;;;;;;;14.90;99.90;;;;;;12500414;28;19937;-85
2023/10/12 19:53:45;;;;;;;;;;;14.90;99.90;;;;;;12481507;28;20324;-84
2023/10/12 19:59:48;;;;;;;;;;;14.90;99.90;;;;;;12472863;28;19925;-84
2023/10/12 20:05:50;;;;;;;;;;;15.00;99.90;;;;;;12499476;28;19970;-84
2023/10/12 20:11:53;;;;;;;;;;;15.10;99.90;;;;;;12488300;28;20428;-85
2023/10/12 20:17:55;;;;;;;;;;;15.20;99.90;;;;;;12494683;28;20022;-85
2023/10/12 20:23:57;;;;;;;;;;;15.10;99.90;;;;;;12479382;28;19929;-85
2023/10/12 20:29:59;;;;;;;;;;;15.10;99.90;;;;;;12494432;28;20027;-85
2023/10/12 20:36:03;;;;;;;;;;;15.10;99.90;;;;;;12475436;28;19951;-85
2023/10/12 20:42:07;;;;;;;;;;;15.10;99.90;;;;;;12495378;28;19964;-84
2023/10/12 20:48:09;;;;;;;;;;;15.20;99.90;;;;;;12492724;28;19939;-85
2023/10/12 20:54:13;;;;;;;;;;;15.10;99.90;;;;;;12477314;28;19928;-85
2023/10/12 21:00:16;;;;;;;;;;;15.20;99.90;;;;;;12483818;28;19932;-85
2023/10/12 21:06:19;;;;;;;;;;;15.20;99.90;;;;;;12499723;28;19932;-85
2023/10/12 21:12:21;;;;;;;;;;;15.30;99.90;;;;;;12497143;28;20445;-84
2023/10/12 21:18:36;;;;;;;;;;;15.20;99.90;;;;;;12495422;28;20684;-85
2023/10/12 21:24:38;;;;;;;;;;;15.30;99.90;;;;;;12470610;28;20483;-85
2023/10/12 21:30:40;;;;;;;;;;;15.20;99.90;;;;;;12489340;28;20534;-84
2023/10/12 21:36:42;;;;;;;;;;;15.30;99.90;;;;;;12497965;28;20024;-86
2023/10/12 21:42:47;;;;;;;;;;;15.30;99.90;;;;;;12500152;28;19978;-85
2023/10/12 21:48:49;;;;;;;;;;;15.30;99.90;;;;;;12491465;28;19933;-84
2023/10/12 21:54:51;;;;;;;;;;;15.20;99.90;;;;;;12481623;28;20002;-86
2023/10/12 22:01:07;;;;;;;;;;;15.30;99.90;;;;;;12481962;28;20369;-85
2023/10/12 22:07:12;;;;;;;;;;;15.20;99.90;;;;;;12477416;28;19931;-84
2023/10/12 22:13:19;;;;;;;;;;;15.30;99.90;;;;;;12496195;28;19936;-85
2023/10/12 22:19:20;;;;;;;;;;;15.30;99.90;;;;;;12496283;28;19935;-85
2023/10/12 22:25:23;;;;;;;;;;;15.40;99.90;;;;;;12484984;28;20400;-84
2023/10/12 22:31:24;;;;;;;;;;;15.40;99.90;;;;;;12500302;28;20428;-85
2023/10/12 22:37:26;;;;;;;;;;;15.40;99.90;;;;;;12470637;28;19929;-84
2023/10/12 22:43:28;;;;;;;;;;;15.50;99.90;;;;;;12533147;28;19948;-84
2023/10/12 22:49:32;;;;;;;;;;;15.50;99.90;;;;;;12547248;28;19933;-85
2023/10/12 22:55:34;;;;;;;;;;;15.50;99.90;;;;;;12546001;28;20377;-84
2023/10/12 23:01:36;;;;;;;;;;;15.60;99.90;;;;;;12540032;28;19944;-84
2023/10/12 23:07:39;;;;;;;;;;;15.60;99.90;;;;;;12541812;28;19947;-85
2023/10/12 23:13:47;;;;;;;;;;;15.70;99.90;;;;;;12536146;28;20351;-85
2023/10/12 23:19:49;;;;;;;;;;;15.70;99.90;;;;;;12502185;28;19975;-85
2023/10/12 23:25:52;;;;;;;;;;;15.70;99.90;;;;;;12512994;28;20388;-84
2023/10/12 23:31:55;;;;;;;;;;;15.70;99.90;;;;;;12490378;28;19941;-85
2023/10/12 23:38:11;;;;;;;;;;;15.70;99.90;;;;;;12488453;28;19933;-85
2023/10/12 23:50:27;;;;;;;;;;;15.80;99.90;;;;;;12503967;28;19960;-83
2023/10/12 23:56:29;;;;;;;;;;;15.70;99.90;;;;;;12491367;28;19929;-83
